Flight Track Log - Related Links

Times and Time Zones

All times are in EDT time to prevent confusion due to time zone crossing. See the SWA2383 flight status page for this flight to view local times or setup timezone preferences in your user account.

Time Position Orientation Groundspeed Altitude Reporting Facility
EDT Latitude Longitude Course Direction KTS MPH feet Rate Location/Type
Sat 11:43:11 AM 39.3167 -94.7167 27° Northeast 145 167 1,900  Level Kansas City TRACON
Sat 11:44:17 AM 39.3667 -94.6833 27° Northeast 211 243 4,300 2,412 Climbing Kansas City TRACON
Sat 11:44:48 AM 39.3600 -94.6367 100° East 223 257 5,800 3,419 Climbing Kansas City Center
Sat 11:45:50 AM 39.3347 -94.5511 111° Southeast 275 316 9,600 3,366 Climbing Kansas City Center
Sat 11:46:51 AM 39.2850 -94.4642 126° Southeast 317 365 12,700 3,512 Climbing Kansas City Center
Sat 11:47:53 AM 39.2208 -94.3500 126° Southeast 349 402 16,800 3,366 Climbing Kansas City Center
Sat 11:48:54 AM 39.1622 -94.2461 126° Southeast 372 428 19,600 2,976 Climbing Kansas City Center
Sat 11:49:56 AM 39.0956 -94.1164 123° Southeast 390 449 22,900 2,976 Climbing Kansas City Center
Sat 11:50:57 AM 39.0856 -93.9783 95° East 404 465 25,700 2,878 Climbing Kansas City Center
Sat 11:51:59 AM 39.0758 -93.8439 95° East 398 458 28,800 1,610 Climbing Kansas City Center
Sat 11:53:00 AM 39.0664 -93.6828 94° East 406 467 29,000 49 Climbing Kansas City Center
Sat 11:54:02 AM 39.0572 -93.5428 95° East 410 472 28,900 -537 Descending Kansas City Center
Sat 11:55:03 AM 39.0489 -93.4033 94° East 411 473 27,900 -927 Descending Kansas City Center
Sat 11:56:05 AM 39.0367 -93.2300 95° East 411 473 27,000 -439 Descending Kansas City Center
Sat 11:57:06 AM 39.0267 -93.0897 95° East 402 463 27,000  Level Kansas City Center
Sat 11:58:08 AM 39.0158 -92.9486 96° East 401 461 27,000  Level Kansas City Center
Sat 11:59:10 AM 38.9956 -92.8056 100° East 402 463 27,000  Level Kansas City Center
Sat 12:00:11 PM 38.9536 -92.6736 112° Southeast 398 458 27,000  Level Kansas City Center
Sat 12:01:13 PM 38.9128 -92.5403 111° Southeast 399 459 27,000 -341 Level Kansas City Center
Sat 12:02:14 PM 38.8708 -92.4078 112° Southeast 399 459 26,300 -829 Descending Kansas City Center
Sat 12:03:16 PM 38.8306 -92.2750 111° Southeast 397 457 25,300 -1,024 Descending Kansas City Center
Sat 12:04:17 PM 38.7856 -92.1142 110° East 397 457 24,200 -1,024 Descending Kansas City Center
Sat 12:05:19 PM 38.7506 -91.9758 108° East 402 463 23,200 -1,415 Descending Kansas City Center
Sat 12:06:20 PM 38.7161 -91.8367 108° East 405 466 21,300 -2,049 Descending Kansas City Center
Sat 12:07:22 PM 38.6922 -91.7003 103° East 398 458 19,000 -2,146 Descending Kansas City Center
Sat 12:08:23 PM 38.6928 -91.5586 90° East 394 453 16,900 -2,098 Descending Kansas City Center
Sat 12:09:25 PM 38.6933 -91.4219 90° East 387 445 14,700 -2,129 Descending Kansas City Center
Sat 12:10:27 PM 38.6944 -91.2944 89° East 359 413 12,500 -2,049 Descending Kansas City Center
Sat 12:11:28 PM 38.6931 -91.1719 91° East 347 399 10,500 -1,268 Descending Kansas City Center
Sat 12:12:30 PM 38.7122 -91.0658 77° East 317 365 9,900 -976 Descending Kansas City Center
Sat 12:13:31 PM 38.7525 -90.9767 60° Northeast 296 341 8,500 -1,171 Descending Kansas City Center
Sat 12:14:33 PM 38.7925 -90.8906 59° Northeast 288 331 7,500 -976 Descending Kansas City Center
Sat 12:15:34 PM 38.8308 -90.8072 59° Northeast 280 322 6,500 -984 Descending Kansas City Center
Sat 12:16:35 PM 38.8672 -90.7256 60° Northeast 271 312 5,500 -1,171 Descending Kansas City Center
Sat 12:17:37 PM 38.8744 -90.6244 85° East 252 290 4,100 -927 Descending Kansas City Center
Sat 12:18:38 PM 38.8411 -90.5578 123° Southeast 233 268 3,600 -634 Descending Kansas City Center
Sat 12:19:40 PM 38.8136 -90.5014 122° Southeast 209 241 2,800 -780 Descending Kansas City Center
Sat 12:20:41 PM 38.7919 -90.4569 122° Southeast 176 203 2,000 -732 Descending Kansas City Center
Sat 12:21:43 PM 38.7747 -90.4203 121° Southeast 140 161 1,300 -634 Descending Kansas City Center
Sat 12:22:44 PM 38.7561 -90.3822 122° Southeast 129 148 700 -590 Descending Kansas City Center
Sat 12:24:00 PM 38.7487 -90.3700 125° Southeast  Level Estimated
Sat 12:31:00 PM 38.7487 -90.3700 125° Southeast  Level Estimated

Login

Don't have an account? Register now (free) for customized features, flight alerts, and more!